sensor_id;sensor_type;location;lat;lon;timestamp;P1;durP1;ratioP1;P2;durP2;ratioP2
25567;SDS011;13455;51.480;7.594;2023-06-05T00:02:12;7.30;;;2.58;;
25567;SDS011;13455;51.480;7.594;2023-06-05T00:04:37;7.80;;;2.58;;
25567;SDS011;13455;51.480;7.594;2023-06-05T00:07:04;5.93;;;2.40;;
25567;SDS011;13455;51.480;7.594;2023-06-05T00:09:30;7.57;;;2.70;;
25567;SDS011;13455;51.480;7.594;2023-06-05T00:11:56;8.37;;;2.60;;
25567;SDS011;13455;51.480;7.594;2023-06-05T00:14:22;7.83;;;2.83;;
25567;SDS011;13455;51.480;7.594;2023-06-05T00:16:47;6.73;;;2.70;;
25567;SDS011;13455;51.480;7.594;2023-06-05T00:19:16;6.53;;;2.50;;
25567;SDS011;13455;51.480;7.594;2023-06-05T00:21:42;5.82;;;2.60;;
25567;SDS011;13455;51.480;7.594;2023-06-05T00:24:07;8.70;;;2.70;;
25567;SDS011;13455;51.480;7.594;2023-06-05T00:26:33;7.67;;;2.83;;
25567;SDS011;13455;51.480;7.594;2023-06-05T00:28:59;7.20;;;2.75;;
25567;SDS011;13455;51.480;7.594;2023-06-05T00:31:24;5.22;;;2.65;;
25567;SDS011;13455;51.480;7.594;2023-06-05T00:33:50;6.85;;;2.80;;
25567;SDS011;13455;51.480;7.594;2023-06-05T00:36:16;6.40;;;2.97;;
25567;SDS011;13455;51.480;7.594;2023-06-05T00:38:43;6.22;;;2.80;;
25567;SDS011;13455;51.480;7.594;2023-06-05T00:41:10;6.07;;;2.90;;
25567;SDS011;13455;51.480;7.594;2023-06-05T00:43:35;6.80;;;3.07;;
25567;SDS011;13455;51.480;7.594;2023-06-05T00:46:02;7.13;;;3.10;;
25567;SDS011;13455;51.480;7.594;2023-06-05T00:48:29;6.65;;;2.70;;
25567;SDS011;13455;51.480;7.594;2023-06-05T00:50:56;6.45;;;2.92;;
25567;SDS011;13455;51.480;7.594;2023-06-05T00:53:23;6.50;;;2.85;;
25567;SDS011;13455;51.480;7.594;2023-06-05T00:55:49;5.95;;;2.90;;
25567;SDS011;13455;51.480;7.594;2023-06-05T00:58:16;7.40;;;2.88;;
25567;SDS011;13455;51.480;7.594;2023-06-05T01:00:43;6.13;;;2.83;;
25567;SDS011;13455;51.480;7.594;2023-06-05T01:03:08;6.27;;;2.90;;
25567;SDS011;13455;51.480;7.594;2023-06-05T01:05:36;6.05;;;2.90;;
25567;SDS011;13455;51.480;7.594;2023-06-05T01:08:02;6.53;;;3.00;;
25567;SDS011;13455;51.480;7.594;2023-06-05T01:10:30;6.95;;;3.22;;
25567;SDS011;13455;51.480;7.594;2023-06-05T01:15:48;6.75;;;3.10;;
25567;SDS011;13455;51.480;7.594;2023-06-05T01:18:15;5.57;;;3.00;;
25567;SDS011;13455;51.480;7.594;2023-06-05T01:20:43;6.77;;;3.10;;
25567;SDS011;13455;51.480;7.594;2023-06-05T01:23:09;6.20;;;2.90;;
25567;SDS011;13455;51.480;7.594;2023-06-05T01:25:35;7.77;;;3.37;;
25567;SDS011;13455;51.480;7.594;2023-06-05T01:33:11;7.68;;;3.30;;
25567;SDS011;13455;51.480;7.594;2023-06-05T01:35:50;9.02;;;3.40;;
25567;SDS011;13455;51.480;7.594;2023-06-05T01:38:16;6.60;;;3.10;;
25567;SDS011;13455;51.480;7.594;2023-06-05T01:40:43;8.02;;;3.20;;
25567;SDS011;13455;51.480;7.594;2023-06-05T01:43:10;9.05;;;3.30;;
25567;SDS011;13455;51.480;7.594;2023-06-05T01:45:37;7.77;;;3.50;;
25567;SDS011;13455;51.480;7.594;2023-06-05T01:48:05;7.78;;;3.60;;
25567;SDS011;13455;51.480;7.594;2023-06-05T01:50:35;7.70;;;3.50;;
25567;SDS011;13455;51.480;7.594;2023-06-05T01:53:02;6.93;;;3.43;;
25567;SDS011;13455;51.480;7.594;2023-06-05T01:55:32;6.72;;;3.80;;
25567;SDS011;13455;51.480;7.594;2023-06-05T01:57:58;7.18;;;3.45;;
25567;SDS011;13455;51.480;7.594;2023-06-05T02:00:24;9.80;;;3.65;;
25567;SDS011;13455;51.480;7.594;2023-06-05T02:02:50;7.72;;;3.70;;
25567;SDS011;13455;51.480;7.594;2023-06-05T02:05:16;11.18;;;3.83;;
25567;SDS011;13455;51.480;7.594;2023-06-05T02:07:46;7.10;;;3.70;;
25567;SDS011;13455;51.480;7.594;2023-06-05T02:10:18;7.85;;;3.80;;
25567;SDS011;13455;51.480;7.594;2023-06-05T02:12:45;6.20;;;3.72;;
25567;SDS011;13455;51.480;7.594;2023-06-05T02:15:11;6.43;;;3.50;;
25567;SDS011;13455;51.480;7.594;2023-06-05T02:17:44;9.30;;;3.73;;
25567;SDS011;13455;51.480;7.594;2023-06-05T02:20:15;8.35;;;3.88;;
25567;SDS011;13455;51.480;7.594;2023-06-05T02:22:41;8.32;;;3.95;;
25567;SDS011;13455;51.480;7.594;2023-06-05T02:25:07;8.30;;;3.90;;
25567;SDS011;13455;51.480;7.594;2023-06-05T02:27:33;6.72;;;3.92;;
25567;SDS011;13455;51.480;7.594;2023-06-05T02:29:59;8.18;;;3.90;;
25567;SDS011;13455;51.480;7.594;2023-06-05T02:32:25;8.73;;;4.05;;
25567;SDS011;13455;51.480;7.594;2023-06-05T02:34:54;7.60;;;4.10;;
25567;SDS011;13455;51.480;7.594;2023-06-05T02:37:22;8.35;;;4.20;;
25567;SDS011;13455;51.480;7.594;2023-06-05T02:39:48;8.00;;;4.20;;
25567;SDS011;13455;51.480;7.594;2023-06-05T02:42:14;8.70;;;4.40;;
25567;SDS011;13455;51.480;7.594;2023-06-05T02:44:41;6.40;;;4.20;;
25567;SDS011;13455;51.480;7.594;2023-06-05T02:47:07;10.90;;;4.50;;
25567;SDS011;13455;51.480;7.594;2023-06-05T02:49:33;8.23;;;4.53;;
25567;SDS011;13455;51.480;7.594;2023-06-05T02:52:00;9.05;;;4.40;;
25567;SDS011;13455;51.480;7.594;2023-06-05T02:54:26;9.00;;;4.72;;
25567;SDS011;13455;51.480;7.594;2023-06-05T02:56:53;8.50;;;4.80;;
25567;SDS011;13455;51.480;7.594;2023-06-05T02:59:21;8.37;;;4.60;;
25567;SDS011;13455;51.480;7.594;2023-06-05T03:01:49;10.00;;;4.80;;
25567;SDS011;13455;51.480;7.594;2023-06-05T03:04:15;7.35;;;4.80;;
25567;SDS011;13455;51.480;7.594;2023-06-05T03:06:46;9.27;;;5.10;;
25567;SDS011;13455;51.480;7.594;2023-06-05T03:09:12;9.35;;;5.05;;
25567;SDS011;13455;51.480;7.594;2023-06-05T03:11:38;11.23;;;5.20;;
25567;SDS011;13455;51.480;7.594;2023-06-05T03:14:04;10.32;;;5.28;;
25567;SDS011;13455;51.480;7.594;2023-06-05T03:16:30;8.88;;;5.20;;
25567;SDS011;13455;51.480;7.594;2023-06-05T03:18:57;10.40;;;5.07;;
25567;SDS011;13455;51.480;7.594;2023-06-05T03:21:23;7.90;;;5.30;;
25567;SDS011;13455;51.480;7.594;2023-06-05T03:23:50;9.97;;;5.43;;
25567;SDS011;13455;51.480;7.594;2023-06-05T03:26:16;8.55;;;5.20;;
25567;SDS011;13455;51.480;7.594;2023-06-05T03:28:44;9.67;;;5.50;;
25567;SDS011;13455;51.480;7.594;2023-06-05T03:31:12;9.73;;;5.45;;
25567;SDS011;13455;51.480;7.594;2023-06-05T03:33:38;8.13;;;5.40;;
25567;SDS011;13455;51.480;7.594;2023-06-05T03:36:04;9.07;;;5.47;;
25567;SDS011;13455;51.480;7.594;2023-06-05T03:38:30;9.10;;;5.57;;
25567;SDS011;13455;51.480;7.594;2023-06-05T03:40:55;10.53;;;5.80;;
25567;SDS011;13455;51.480;7.594;2023-06-05T03:43:21;9.53;;;5.70;;
25567;SDS011;13455;51.480;7.594;2023-06-05T03:45:49;9.67;;;5.87;;
25567;SDS011;13455;51.480;7.594;2023-06-05T03:48:16;9.07;;;6.10;;
25567;SDS011;13455;51.480;7.594;2023-06-05T03:50:45;10.98;;;6.10;;
25567;SDS011;13455;51.480;7.594;2023-06-05T03:53:11;10.55;;;5.93;;
25567;SDS011;13455;51.480;7.594;2023-06-05T03:55:38;13.07;;;5.90;;
25567;SDS011;13455;51.480;7.594;2023-06-05T03:58:19;9.00;;;5.35;;
25567;SDS011;13455;51.480;7.594;2023-06-05T04:00:46;10.80;;;6.03;;
25567;SDS011;13455;51.480;7.594;2023-06-05T04:03:15;10.13;;;5.43;;
25567;SDS011;13455;51.480;7.594;2023-06-05T04:05:41;9.47;;;5.83;;
25567;SDS011;13455;51.480;7.594;2023-06-05T04:08:07;9.90;;;5.45;;
25567;SDS011;13455;51.480;7.594;2023-06-05T04:10:34;10.23;;;5.80;;
25567;SDS011;13455;51.480;7.594;2023-06-05T04:13:00;8.60;;;5.50;;
25567;SDS011;13455;51.480;7.594;2023-06-05T04:15:26;10.53;;;5.70;;
25567;SDS011;13455;51.480;7.594;2023-06-05T04:17:52;8.68;;;5.40;;
25567;SDS011;13455;51.480;7.594;2023-06-05T04:20:18;9.48;;;5.47;;
25567;SDS011;13455;51.480;7.594;2023-06-05T04:22:45;9.05;;;5.45;;
25567;SDS011;13455;51.480;7.594;2023-06-05T04:25:11;8.77;;;5.53;;
25567;SDS011;13455;51.480;7.594;2023-06-05T04:27:38;9.48;;;5.38;;
25567;SDS011;13455;51.480;7.594;2023-06-05T04:30:05;10.85;;;5.50;;
25567;SDS011;13455;51.480;7.594;2023-06-05T04:32:31;9.20;;;5.60;;
25567;SDS011;13455;51.480;7.594;2023-06-05T04:35:02;8.07;;;5.43;;
25567;SDS011;13455;51.480;7.594;2023-06-05T04:37:28;8.57;;;5.30;;
25567;SDS011;13455;51.480;7.594;2023-06-05T04:39:54;10.18;;;5.32;;
25567;SDS011;13455;51.480;7.594;2023-06-05T04:42:20;9.35;;;5.28;;
25567;SDS011;13455;51.480;7.594;2023-06-05T04:44:56;8.35;;;5.25;;
25567;SDS011;13455;51.480;7.594;2023-06-05T04:47:23;11.17;;;5.93;;
25567;SDS011;13455;51.480;7.594;2023-06-05T04:49:49;10.80;;;5.50;;
25567;SDS011;13455;51.480;7.594;2023-06-05T04:52:17;9.60;;;5.43;;
25567;SDS011;13455;51.480;7.594;2023-06-05T04:54:45;9.50;;;5.40;;
25567;SDS011;13455;51.480;7.594;2023-06-05T04:57:11;9.00;;;5.73;;
25567;SDS011;13455;51.480;7.594;2023-06-05T04:59:37;9.43;;;6.00;;
25567;SDS011;13455;51.480;7.594;2023-06-05T05:02:03;12.10;;;5.95;;
25567;SDS011;13455;51.480;7.594;2023-06-05T05:04:29;9.90;;;5.53;;
25567;SDS011;13455;51.480;7.594;2023-06-05T05:06:56;9.18;;;5.50;;
25567;SDS011;13455;51.480;7.594;2023-06-05T05:09:28;11.05;;;5.70;;
25567;SDS011;13455;51.480;7.594;2023-06-05T05:11:55;9.48;;;5.70;;
25567;SDS011;13455;51.480;7.594;2023-06-05T05:14:23;10.52;;;5.70;;
25567;SDS011;13455;51.480;7.594;2023-06-05T05:16:50;8.37;;;5.57;;
25567;SDS011;13455;51.480;7.594;2023-06-05T05:19:16;10.18;;;5.90;;
25567;SDS011;13455;51.480;7.594;2023-06-05T05:21:41;10.15;;;5.88;;
25567;SDS011;13455;51.480;7.594;2023-06-05T05:24:07;9.10;;;5.70;;
25567;SDS011;13455;51.480;7.594;2023-06-05T05:26:34;8.77;;;5.40;;
25567;SDS011;13455;51.480;7.594;2023-06-05T05:29:00;8.80;;;5.65;;
25567;SDS011;13455;51.480;7.594;2023-06-05T05:31:26;9.95;;;5.65;;
25567;SDS011;13455;51.480;7.594;2023-06-05T05:33:54;8.25;;;5.60;;
25567;SDS011;13455;51.480;7.594;2023-06-05T05:36:20;12.70;;;5.85;;
25567;SDS011;13455;51.480;7.594;2023-06-05T05:38:46;10.03;;;6.00;;
25567;SDS011;13455;51.480;7.594;2023-06-05T05:41:12;10.17;;;5.90;;
25567;SDS011;13455;51.480;7.594;2023-06-05T05:43:38;9.63;;;5.88;;
25567;SDS011;13455;51.480;7.594;2023-06-05T05:46:04;8.95;;;5.78;;
25567;SDS011;13455;51.480;7.594;2023-06-05T05:48:30;9.30;;;5.97;;
25567;SDS011;13455;51.480;7.594;2023-06-05T05:50:56;9.35;;;5.38;;
25567;SDS011;13455;51.480;7.594;2023-06-05T05:53:22;11.47;;;5.73;;
25567;SDS011;13455;51.480;7.594;2023-06-05T05:55:48;10.65;;;5.60;;
25567;SDS011;13455;51.480;7.594;2023-06-05T05:58:14;8.98;;;5.68;;
25567;SDS011;13455;51.480;7.594;2023-06-05T06:00:41;8.15;;;5.47;;
25567;SDS011;13455;51.480;7.594;2023-06-05T06:03:08;9.10;;;6.10;;
25567;SDS011;13455;51.480;7.594;2023-06-05T06:05:33;7.73;;;5.57;;
25567;SDS011;13455;51.480;7.594;2023-06-05T06:08:01;10.95;;;5.80;;
25567;SDS011;13455;51.480;7.594;2023-06-05T06:10:28;8.63;;;5.87;;
25567;SDS011;13455;51.480;7.594;2023-06-05T06:12:55;8.32;;;5.38;;
25567;SDS011;13455;51.480;7.594;2023-06-05T06:15:22;11.13;;;5.88;;
25567;SDS011;13455;51.480;7.594;2023-06-05T06:17:48;10.43;;;5.47;;
25567;SDS011;13455;51.480;7.594;2023-06-05T06:20:14;8.30;;;5.40;;
25567;SDS011;13455;51.480;7.594;2023-06-05T06:22:41;8.68;;;5.38;;
25567;SDS011;13455;51.480;7.594;2023-06-05T06:25:07;9.18;;;5.57;;
25567;SDS011;13455;51.480;7.594;2023-06-05T06:27:37;9.85;;;5.30;;
25567;SDS011;13455;51.480;7.594;2023-06-05T06:30:03;8.75;;;5.10;;
25567;SDS011;13455;51.480;7.594;2023-06-05T06:32:30;6.70;;;4.85;;
25567;SDS011;13455;51.480;7.594;2023-06-05T06:34:56;9.30;;;5.20;;
25567;SDS011;13455;51.480;7.594;2023-06-05T06:37:21;7.90;;;4.95;;
25567;SDS011;13455;51.480;7.594;2023-06-05T06:39:47;8.38;;;5.22;;
25567;SDS011;13455;51.480;7.594;2023-06-05T06:42:13;9.32;;;5.35;;
25567;SDS011;13455;51.480;7.594;2023-06-05T06:44:39;10.35;;;5.45;;
25567;SDS011;13455;51.480;7.594;2023-06-05T06:47:05;8.32;;;5.30;;
25567;SDS011;13455;51.480;7.594;2023-06-05T06:49:31;8.70;;;5.35;;
25567;SDS011;13455;51.480;7.594;2023-06-05T06:51:57;12.35;;;5.60;;
25567;SDS011;13455;51.480;7.594;2023-06-05T06:54:23;8.40;;;5.40;;
25567;SDS011;13455;51.480;7.594;2023-06-05T06:56:51;7.03;;;5.40;;
25567;SDS011;13455;51.480;7.594;2023-06-05T06:59:17;9.10;;;5.37;;
25567;SDS011;13455;51.480;7.594;2023-06-05T07:01:43;8.48;;;5.13;;
25567;SDS011;13455;51.480;7.594;2023-06-05T07:04:16;7.72;;;5.13;;
25567;SDS011;13455;51.480;7.594;2023-06-05T07:06:45;9.77;;;5.28;;
25567;SDS011;13455;51.480;7.594;2023-06-05T07:09:11;9.40;;;5.20;;
25567;SDS011;13455;51.480;7.594;2023-06-05T07:11:37;8.80;;;4.88;;
25567;SDS011;13455;51.480;7.594;2023-06-05T07:14:03;10.98;;;5.00;;
25567;SDS011;13455;51.480;7.594;2023-06-05T07:16:30;9.25;;;4.80;;
25567;SDS011;13455;51.480;7.594;2023-06-05T07:18:56;9.88;;;5.00;;
25567;SDS011;13455;51.480;7.594;2023-06-05T07:21:22;10.57;;;5.00;;
25567;SDS011;13455;51.480;7.594;2023-06-05T07:23:48;8.73;;;5.20;;
25567;SDS011;13455;51.480;7.594;2023-06-05T07:26:16;10.20;;;5.05;;
25567;SDS011;13455;51.480;7.594;2023-06-05T07:28:42;8.25;;;4.78;;
25567;SDS011;13455;51.480;7.594;2023-06-05T07:31:08;12.63;;;5.40;;
25567;SDS011;13455;51.480;7.594;2023-06-05T07:33:35;9.07;;;5.07;;
25567;SDS011;13455;51.480;7.594;2023-06-05T07:36:01;8.88;;;5.20;;
25567;SDS011;13455;51.480;7.594;2023-06-05T07:38:27;11.68;;;5.00;;
25567;SDS011;13455;51.480;7.594;2023-06-05T07:40:57;8.18;;;4.82;;
25567;SDS011;13455;51.480;7.594;2023-06-05T07:43:23;10.73;;;5.00;;
25567;SDS011;13455;51.480;7.594;2023-06-05T07:45:49;8.45;;;5.00;;
25567;SDS011;13455;51.480;7.594;2023-06-05T07:48:15;7.27;;;4.60;;
25567;SDS011;13455;51.480;7.594;2023-06-05T07:50:41;8.65;;;4.47;;
25567;SDS011;13455;51.480;7.594;2023-06-05T07:53:07;9.63;;;4.27;;
25567;SDS011;13455;51.480;7.594;2023-06-05T07:55:33;9.15;;;4.20;;
25567;SDS011;13455;51.480;7.594;2023-06-05T07:57:58;10.55;;;4.50;;
25567;SDS011;13455;51.480;7.594;2023-06-05T08:00:25;7.32;;;4.60;;
25567;SDS011;13455;51.480;7.594;2023-06-05T08:02:52;8.77;;;4.20;;
25567;SDS011;13455;51.480;7.594;2023-06-05T08:05:18;7.63;;;4.10;;
25567;SDS011;13455;51.480;7.594;2023-06-05T08:07:45;7.68;;;4.30;;
25567;SDS011;13455;51.480;7.594;2023-06-05T08:10:11;7.80;;;4.20;;
25567;SDS011;13455;51.480;7.594;2023-06-05T08:12:37;6.65;;;4.13;;
25567;SDS011;13455;51.480;7.594;2023-06-05T08:15:03;7.67;;;4.20;;
25567;SDS011;13455;51.480;7.594;2023-06-05T08:17:29;8.07;;;3.90;;
25567;SDS011;13455;51.480;7.594;2023-06-05T08:19:55;7.75;;;4.20;;
25567;SDS011;13455;51.480;7.594;2023-06-05T08:22:21;8.03;;;4.20;;
25567;SDS011;13455;51.480;7.594;2023-06-05T08:24:47;7.85;;;3.88;;
25567;SDS011;13455;51.480;7.594;2023-06-05T08:27:15;7.68;;;4.03;;
25567;SDS011;13455;51.480;7.594;2023-06-05T08:29:41;6.78;;;3.60;;
25567;SDS011;13455;51.480;7.594;2023-06-05T08:32:07;6.32;;;3.95;;
25567;SDS011;13455;51.480;7.594;2023-06-05T08:34:32;8.80;;;4.22;;
25567;SDS011;13455;51.480;7.594;2023-06-05T08:36:58;9.35;;;5.10;;
25567;SDS011;13455;51.480;7.594;2023-06-05T08:39:25;10.50;;;4.88;;
25567;SDS011;13455;51.480;7.594;2023-06-05T08:41:56;6.75;;;4.07;;
25567;SDS011;13455;51.480;7.594;2023-06-05T08:44:25;8.40;;;4.43;;
25567;SDS011;13455;51.480;7.594;2023-06-05T08:46:51;7.75;;;4.40;;
25567;SDS011;13455;51.480;7.594;2023-06-05T08:49:18;8.32;;;4.28;;
25567;SDS011;13455;51.480;7.594;2023-06-05T08:51:47;6.93;;;4.03;;
25567;SDS011;13455;51.480;7.594;2023-06-05T08:54:17;8.88;;;4.40;;
25567;SDS011;13455;51.480;7.594;2023-06-05T08:56:44;7.50;;;4.40;;
25567;SDS011;13455;51.480;7.594;2023-06-05T08:59:13;8.10;;;4.50;;
25567;SDS011;13455;51.480;7.594;2023-06-05T09:01:39;8.80;;;4.63;;
25567;SDS011;13455;51.480;7.594;2023-06-05T09:04:05;6.90;;;4.40;;
25567;SDS011;13455;51.480;7.594;2023-06-05T09:06:31;9.05;;;4.30;;
25567;SDS011;13455;51.480;7.594;2023-06-05T09:09:01;7.90;;;4.47;;
25567;SDS011;13455;51.480;7.594;2023-06-05T09:11:28;7.05;;;4.10;;
25567;SDS011;13455;51.480;7.594;2023-06-05T09:13:55;7.75;;;4.13;;
25567;SDS011;13455;51.480;7.594;2023-06-05T09:16:22;9.60;;;4.33;;
25567;SDS011;13455;51.480;7.594;2023-06-05T09:18:55;7.38;;;4.03;;
25567;SDS011;13455;51.480;7.594;2023-06-05T09:21:22;6.63;;;3.63;;
25567;SDS011;13455;51.480;7.594;2023-06-05T09:29:30;7.53;;;4.00;;
25567;SDS011;13455;51.480;7.594;2023-06-05T09:32:02;7.72;;;3.97;;
25567;SDS011;13455;51.480;7.594;2023-06-05T09:37:02;8.38;;;3.80;;
25567;SDS011;13455;51.480;7.594;2023-06-05T09:39:29;9.77;;;3.80;;
25567;SDS011;13455;51.480;7.594;2023-06-05T09:41:57;6.95;;;3.90;;
25567;SDS011;13455;51.480;7.594;2023-06-05T09:44:23;9.88;;;4.05;;
25567;SDS011;13455;51.480;7.594;2023-06-05T09:52:04;8.32;;;4.00;;
25567;SDS011;13455;51.480;7.594;2023-06-05T09:54:30;9.60;;;3.80;;
25567;SDS011;13455;51.480;7.594;2023-06-05T09:57:00;8.90;;;3.85;;
25567;SDS011;13455;51.480;7.594;2023-06-05T09:59:28;8.27;;;3.50;;
25567;SDS011;13455;51.480;7.594;2023-06-05T10:01:59;5.73;;;3.40;;
25567;SDS011;13455;51.480;7.594;2023-06-05T10:04:27;7.40;;;3.70;;
25567;SDS011;13455;51.480;7.594;2023-06-05T10:06:55;7.72;;;3.95;;
25567;SDS011;13455;51.480;7.594;2023-06-05T10:09:25;7.43;;;3.93;;
25567;SDS011;13455;51.480;7.594;2023-06-05T10:11:51;9.48;;;3.80;;
25567;SDS011;13455;51.480;7.594;2023-06-05T10:14:20;8.13;;;3.47;;
25567;SDS011;13455;51.480;7.594;2023-06-05T10:16:49;6.30;;;3.50;;
25567;SDS011;13455;51.480;7.594;2023-06-05T10:19:19;8.17;;;3.90;;
25567;SDS011;13455;51.480;7.594;2023-06-05T10:21:48;8.30;;;4.07;;
25567;SDS011;13455;51.480;7.594;2023-06-05T10:24:16;8.95;;;3.78;;
25567;SDS011;13455;51.480;7.594;2023-06-05T10:35:37;8.37;;;3.80;;
25567;SDS011;13455;51.480;7.594;2023-06-05T10:40:45;5.90;;;3.20;;
25567;SDS011;13455;51.480;7.594;2023-06-05T10:46:27;7.22;;;3.10;;
25567;SDS011;13455;51.480;7.594;2023-06-05T10:49:10;6.43;;;2.92;;
25567;SDS011;13455;51.480;7.594;2023-06-05T10:51:47;9.00;;;3.50;;
25567;SDS011;13455;51.480;7.594;2023-06-05T10:54:14;5.85;;;3.42;;
25567;SDS011;13455;51.480;7.594;2023-06-05T10:56:59;5.83;;;3.20;;
25567;SDS011;13455;51.480;7.594;2023-06-05T10:59:32;8.95;;;3.20;;
25567;SDS011;13455;51.480;7.594;2023-06-05T11:07:20;5.38;;;3.30;;
25567;SDS011;13455;51.480;7.594;2023-06-05T11:15:12;4.80;;;2.70;;
25567;SDS011;13455;51.480;7.594;2023-06-05T11:17:39;6.95;;;2.83;;
25567;SDS011;13455;51.480;7.594;2023-06-05T11:20:07;7.50;;;3.10;;
25567;SDS011;13455;51.480;7.594;2023-06-05T11:27:52;5.63;;;2.10;;
25567;SDS011;13455;51.480;7.594;2023-06-05T11:30:19;5.80;;;2.22;;
25567;SDS011;13455;51.480;7.594;2023-06-05T11:32:46;3.85;;;2.30;;
25567;SDS011;13455;51.480;7.594;2023-06-05T11:35:12;7.70;;;2.00;;
25567;SDS011;13455;51.480;7.594;2023-06-05T11:37:39;3.42;;;1.90;;
25567;SDS011;13455;51.480;7.594;2023-06-05T11:40:05;6.00;;;2.45;;
25567;SDS011;13455;51.480;7.594;2023-06-05T11:42:34;4.90;;;2.50;;
25567;SDS011;13455;51.480;7.594;2023-06-05T11:45:00;4.82;;;2.30;;
25567;SDS011;13455;51.480;7.594;2023-06-05T11:47:27;4.35;;;2.50;;
25567;SDS011;13455;51.480;7.594;2023-06-05T11:49:54;4.40;;;2.10;;
25567;SDS011;13455;51.480;7.594;2023-06-05T11:52:35;4.22;;;2.03;;
25567;SDS011;13455;51.480;7.594;2023-06-05T11:55:16;5.07;;;2.08;;
25567;SDS011;13455;51.480;7.594;2023-06-05T11:57:47;4.38;;;2.20;;
25567;SDS011;13455;51.480;7.594;2023-06-05T12:00:13;5.50;;;2.30;;
25567;SDS011;13455;51.480;7.594;2023-06-05T12:02:43;4.35;;;2.03;;
25567;SDS011;13455;51.480;7.594;2023-06-05T12:05:09;4.45;;;2.17;;
25567;SDS011;13455;51.480;7.594;2023-06-05T12:07:35;7.47;;;2.35;;
25567;SDS011;13455;51.480;7.594;2023-06-05T12:12:31;5.80;;;1.90;;
25567;SDS011;13455;51.480;7.594;2023-06-05T12:15:12;5.43;;;2.10;;
25567;SDS011;13455;51.480;7.594;2023-06-05T12:17:39;4.22;;;2.20;;
25567;SDS011;13455;51.480;7.594;2023-06-05T12:20:05;6.00;;;2.70;;
25567;SDS011;13455;51.480;7.594;2023-06-05T12:22:34;4.95;;;2.30;;
25567;SDS011;13455;51.480;7.594;2023-06-05T12:27:45;6.05;;;2.10;;
25567;SDS011;13455;51.480;7.594;2023-06-05T12:30:11;6.40;;;2.08;;
25567;SDS011;13455;51.480;7.594;2023-06-05T12:32:37;5.10;;;1.80;;
25567;SDS011;13455;51.480;7.594;2023-06-05T12:35:04;5.23;;;2.10;;
25567;SDS011;13455;51.480;7.594;2023-06-05T12:37:34;3.77;;;1.80;;
25567;SDS011;13455;51.480;7.594;2023-06-05T12:40:04;5.72;;;1.88;;
25567;SDS011;13455;51.480;7.594;2023-06-05T12:42:34;3.42;;;1.70;;
25567;SDS011;13455;51.480;7.594;2023-06-05T12:45:03;5.47;;;1.90;;
25567;SDS011;13455;51.480;7.594;2023-06-05T12:47:29;4.88;;;1.95;;
25567;SDS011;13455;51.480;7.594;2023-06-05T12:49:55;4.97;;;2.00;;
25567;SDS011;13455;51.480;7.594;2023-06-05T12:52:24;3.65;;;1.80;;
25567;SDS011;13455;51.480;7.594;2023-06-05T12:54:53;3.10;;;1.70;;
25567;SDS011;13455;51.480;7.594;2023-06-05T12:57:19;4.45;;;1.90;;
25567;SDS011;13455;51.480;7.594;2023-06-05T12:59:48;3.53;;;1.90;;
25567;SDS011;13455;51.480;7.594;2023-06-05T13:02:15;2.85;;;1.60;;
25567;SDS011;13455;51.480;7.594;2023-06-05T13:04:41;4.35;;;1.80;;
25567;SDS011;13455;51.480;7.594;2023-06-05T13:07:07;2.90;;;1.70;;
25567;SDS011;13455;51.480;7.594;2023-06-05T13:09:33;5.57;;;1.80;;
25567;SDS011;13455;51.480;7.594;2023-06-05T13:12:00;3.20;;;1.77;;
25567;SDS011;13455;51.480;7.594;2023-06-05T13:14:27;3.80;;;1.80;;
25567;SDS011;13455;51.480;7.594;2023-06-05T13:16:53;2.70;;;1.45;;
25567;SDS011;13455;51.480;7.594;2023-06-05T13:19:18;3.30;;;1.50;;
25567;SDS011;13455;51.480;7.594;2023-06-05T13:21:45;3.78;;;1.60;;
25567;SDS011;13455;51.480;7.594;2023-06-05T13:24:11;4.03;;;1.60;;
25567;SDS011;13455;51.480;7.594;2023-06-05T13:26:37;4.53;;;1.67;;
25567;SDS011;13455;51.480;7.594;2023-06-05T13:29:02;4.20;;;1.60;;
25567;SDS011;13455;51.480;7.594;2023-06-05T13:31:28;4.28;;;1.63;;
25567;SDS011;13455;51.480;7.594;2023-06-05T13:33:55;5.90;;;1.80;;
25567;SDS011;13455;51.480;7.594;2023-06-05T13:36:21;4.77;;;1.80;;
25567;SDS011;13455;51.480;7.594;2023-06-05T13:38:48;3.00;;;1.75;;
25567;SDS011;13455;51.480;7.594;2023-06-05T13:41:14;3.70;;;1.60;;
25567;SDS011;13455;51.480;7.594;2023-06-05T13:43:40;3.65;;;1.55;;
25567;SDS011;13455;51.480;7.594;2023-06-05T13:46:05;5.87;;;1.80;;
25567;SDS011;13455;51.480;7.594;2023-06-05T13:48:31;3.10;;;1.57;;
25567;SDS011;13455;51.480;7.594;2023-06-05T13:50:59;3.20;;;1.80;;
25567;SDS011;13455;51.480;7.594;2023-06-05T13:53:25;2.50;;;1.60;;
25567;SDS011;13455;51.480;7.594;2023-06-05T13:55:52;4.18;;;1.83;;
25567;SDS011;13455;51.480;7.594;2023-06-05T13:58:18;3.83;;;1.65;;
25567;SDS011;13455;51.480;7.594;2023-06-05T14:00:45;4.53;;;1.70;;
25567;SDS011;13455;51.480;7.594;2023-06-05T14:03:12;6.53;;;2.00;;
25567;SDS011;13455;51.480;7.594;2023-06-05T14:05:38;3.55;;;1.70;;
25567;SDS011;13455;51.480;7.594;2023-06-05T14:08:04;4.17;;;1.63;;
25567;SDS011;13455;51.480;7.594;2023-06-05T14:10:32;2.83;;;1.70;;
25567;SDS011;13455;51.480;7.594;2023-06-05T14:13:00;3.33;;;1.90;;
25567;SDS011;13455;51.480;7.594;2023-06-05T14:15:26;6.10;;;2.15;;
25567;SDS011;13455;51.480;7.594;2023-06-05T14:17:52;5.75;;;2.53;;
25567;SDS011;13455;51.480;7.594;2023-06-05T14:20:18;4.23;;;2.50;;
25567;SDS011;13455;51.480;7.594;2023-06-05T14:22:45;3.97;;;2.47;;
25567;SDS011;13455;51.480;7.594;2023-06-05T14:25:11;4.22;;;2.13;;
25567;SDS011;13455;51.480;7.594;2023-06-05T14:27:37;4.22;;;1.90;;
25567;SDS011;13455;51.480;7.594;2023-06-05T14:30:03;6.50;;;1.83;;
25567;SDS011;13455;51.480;7.594;2023-06-05T14:32:29;3.92;;;2.03;;
25567;SDS011;13455;51.480;7.594;2023-06-05T14:34:54;5.30;;;2.10;;
25567;SDS011;13455;51.480;7.594;2023-06-05T14:37:20;4.37;;;2.10;;
25567;SDS011;13455;51.480;7.594;2023-06-05T14:39:48;4.72;;;2.00;;
25567;SDS011;13455;51.480;7.594;2023-06-05T14:42:15;4.35;;;1.90;;
25567;SDS011;13455;51.480;7.594;2023-06-05T14:44:41;7.22;;;2.22;;
25567;SDS011;13455;51.480;7.594;2023-06-05T14:47:07;3.60;;;2.00;;
25567;SDS011;13455;51.480;7.594;2023-06-05T14:49:33;4.20;;;2.00;;
25567;SDS011;13455;51.480;7.594;2023-06-05T14:51:59;4.05;;;2.05;;
25567;SDS011;13455;51.480;7.594;2023-06-05T14:54:26;2.90;;;1.98;;
25567;SDS011;13455;51.480;7.594;2023-06-05T14:56:51;4.60;;;2.00;;
25567;SDS011;13455;51.480;7.594;2023-06-05T14:59:17;4.90;;;2.10;;
25567;SDS011;13455;51.480;7.594;2023-06-05T15:01:43;5.90;;;2.30;;
25567;SDS011;13455;51.480;7.594;2023-06-05T15:04:09;3.35;;;2.08;;
25567;SDS011;13455;51.480;7.594;2023-06-05T15:06:35;3.70;;;2.08;;
25567;SDS011;13455;51.480;7.594;2023-06-05T15:09:02;4.25;;;2.25;;
25567;SDS011;13455;51.480;7.594;2023-06-05T15:11:28;3.50;;;1.90;;
25567;SDS011;13455;51.480;7.594;2023-06-05T15:13:54;4.95;;;1.98;;
25567;SDS011;13455;51.480;7.594;2023-06-05T15:16:20;4.05;;;2.10;;
25567;SDS011;13455;51.480;7.594;2023-06-05T15:18:46;4.13;;;2.38;;
25567;SDS011;13455;51.480;7.594;2023-06-05T15:21:15;4.25;;;2.20;;
25567;SDS011;13455;51.480;7.594;2023-06-05T15:23:41;4.22;;;2.40;;
25567;SDS011;13455;51.480;7.594;2023-06-05T15:26:09;3.83;;;2.20;;
25567;SDS011;13455;51.480;7.594;2023-06-05T15:28:35;3.23;;;2.10;;
25567;SDS011;13455;51.480;7.594;2023-06-05T15:31:02;3.78;;;2.30;;
25567;SDS011;13455;51.480;7.594;2023-06-05T15:33:31;3.70;;;2.70;;
25567;SDS011;13455;51.480;7.594;2023-06-05T15:35:57;4.57;;;3.03;;
25567;SDS011;13455;51.480;7.594;2023-06-05T15:38:23;9.80;;;6.55;;
25567;SDS011;13455;51.480;7.594;2023-06-05T15:40:50;6.88;;;2.85;;
25567;SDS011;13455;51.480;7.594;2023-06-05T15:43:16;3.63;;;2.20;;